Terminal Aerodrome Forecast
Issued by NWS

Home | Current Version | Previous Version | Text Only | Print | Product List | Glossary On
Versions: 1 2 3 4 5 6 7 8 9 10 11 12 13 14 15 16 17 18 19 20 21 22 23 24 25 26
000
FTUS43 KLSX 231700
TAFCPS
TAF
KCPS 231730Z 2318/2418 14011KT 5SM -RA BR SCT015 OVC050
      TEMPO 2318/2322 3SM RA BR OVC010
     FM232200 18008KT 3SM -RA BR OVC008
     FM240800 26014KT 4SM -RA BR OVC008
     FM241200 28018G28KT P6SM OVC015=

USA.gov is the U.S. government's official web portal to all federal, state and local government web resources and services.